Time;durP1;ratioP1;P1;durP2;ratioP2;P2;SDS_P1;SDS_P2;PMS_P1;PMS_P2;Temp;Humidity;BMP_temperature;BMP_pressure;BME280_temperature;BME280_humidity;BME280_pressure;Samples;Min_cycle;Max_cycle;Signal;HPM_P1;HPM_P2
2022/07/13 00:01:46;;;;;;;3.10;1.63;;;20.10;99.90;;;;;;5051372;28;20428;-68
2022/07/13 00:04:12;;;;;;;4.37;2.00;;;20.00;99.90;;;;;;5051947;28;20171;-68
2022/07/13 00:06:38;;;;;;;33.93;4.73;;;20.00;99.90;;;;;;5051364;28;20182;-68
2022/07/13 00:09:03;;;;;;;17.30;3.23;;;20.00;99.90;;;;;;5050505;28;20683;-68
2022/07/13 00:11:29;;;;;;;5.50;1.97;;;19.90;99.90;;;;;;5051098;28;20167;-68
2022/07/13 00:13:55;;;;;;;3.30;2.10;;;19.80;99.90;;;;;;5051276;28;20190;-68
2022/07/13 00:16:21;;;;;;;15.33;3.70;;;19.80;99.90;;;;;;5051009;28;20167;-67
2022/07/13 00:18:47;;;;;;;16.63;3.90;;;19.80;99.90;;;;;;5049943;28;20225;-68
2022/07/13 00:21:13;;;;;;;5.20;2.20;;;19.80;99.90;;;;;;5051576;28;20412;-68
2022/07/13 00:23:39;;;;;;;2.97;1.83;;;19.70;99.90;;;;;;5051094;28;20185;-68
2022/07/13 00:26:05;;;;;;;4.53;2.47;;;19.70;99.90;;;;;;5051160;28;20409;-68
2022/07/13 00:28:32;;;;;;;4.43;2.70;;;19.60;99.90;;;;;;5049678;28;20448;-67
2022/07/13 00:30:57;;;;;;;6.23;1.90;;;19.60;99.90;;;;;;5050924;28;20495;-67
2022/07/13 00:33:23;;;;;;;4.20;2.03;;;19.50;99.90;;;;;;5051174;28;20425;-67
2022/07/13 00:35:49;;;;;;;3.70;2.10;;;19.50;99.90;;;;;;5051191;28;20305;-67
2022/07/13 00:38:14;;;;;;;3.40;2.00;;;19.50;99.90;;;;;;5049997;28;20174;-68
2022/07/13 00:40:40;;;;;;;4.63;2.30;;;19.50;99.90;;;;;;5050768;28;20275;-68
2022/07/13 00:43:06;;;;;;;3.20;1.97;;;19.40;99.90;;;;;;5062066;28;20278;-68
2022/07/13 00:45:52;;;;;;;4.80;2.10;;;19.40;99.90;;;;;;5081756;28;20167;-63
2022/07/13 00:48:19;;;;;;;8.43;2.63;;;19.40;99.90;;;;;;5075786;28;20213;-67
2022/07/13 00:50:57;;;;;;;5.07;2.50;;;19.40;99.90;;;;;;5093690;28;20440;-64
2022/07/13 01:01:35;;;;;;;10.13;2.40;;;19.30;99.90;;;;;;5054259;28;20465;-68
2022/07/13 01:04:02;;;;;;;3.87;1.60;;;19.30;99.90;;;;;;4976577;28;20500;-69
2022/07/13 01:06:28;;;;;;;4.63;2.13;;;19.30;99.90;;;;;;4978650;28;20412;-68
2022/07/13 01:08:58;;;;;;;12.17;2.70;;;19.30;99.90;;;;;;4982205;28;20414;-64
2022/07/13 01:11:32;;;;;;;8.70;2.70;;;19.20;99.90;;;;;;4993418;28;20178;-66
2022/07/13 01:14:00;;;;;;;6.33;2.60;;;19.20;99.90;;;;;;4994187;28;20432;-66
2022/07/13 01:16:27;;;;;;;3.73;2.03;;;19.20;99.90;;;;;;4969306;28;20429;-68
2022/07/13 01:18:53;;;;;;;4.60;2.20;;;19.10;99.90;;;;;;4976871;28;20436;-66
2022/07/13 01:21:19;;;;;;;2.40;2.00;;;19.10;99.90;;;;;;4988759;28;20885;-66
2022/07/13 01:23:45;;;;;;;4.87;2.67;;;19.10;99.90;;;;;;4988718;28;20807;-66
2022/07/13 01:26:11;;;;;;;22.70;3.50;;;19.10;99.90;;;;;;4972120;28;20450;-66
2022/07/13 01:28:37;;;;;;;20.83;3.33;;;19.00;99.90;;;;;;4987843;28;20193;-66
2022/07/13 01:31:03;;;;;;;22.57;3.67;;;19.00;99.90;;;;;;4987828;28;20489;-66
2022/07/13 01:33:29;;;;;;;10.60;2.40;;;19.00;99.90;;;;;;5001618;28;20409;-67
2022/07/13 01:35:55;;;;;;;9.43;2.50;;;19.00;99.90;;;;;;5050439;28;20174;-66
2022/07/13 01:38:22;;;;;;;4.50;2.07;;;18.90;99.90;;;;;;5049493;28;20920;-66
2022/07/13 01:40:47;;;;;;;10.83;2.37;;;18.90;99.90;;;;;;5050254;28;20460;-66
2022/07/13 01:43:13;;;;;;;15.23;3.73;;;18.90;99.90;;;;;;5062204;28;20777;-67
2022/07/13 01:45:39;;;;;;;7.37;2.13;;;18.90;99.90;;;;;;5069648;28;20255;-66
2022/07/13 01:48:05;;;;;;;8.60;2.50;;;18.90;99.90;;;;;;5069005;28;20167;-66
2022/07/13 01:50:31;;;;;;;2.83;1.93;;;18.90;99.90;;;;;;5084977;28;20228;-66
2022/07/13 01:52:57;;;;;;;7.03;2.90;;;18.90;99.90;;;;;;5054451;28;20922;-66
2022/07/13 01:55:22;;;;;;;4.57;2.30;;;18.90;99.90;;;;;;5031931;28;20187;-66
2022/07/13 01:57:48;;;;;;;12.67;3.00;;;18.70;99.90;;;;;;5048734;28;20167;-67
2022/07/13 02:00:20;;;;;;;3.77;2.27;;;18.70;99.90;;;;;;5049013;28;20237;-67
2022/07/13 02:02:47;;;;;;;7.97;2.73;;;18.60;99.90;;;;;;5049102;28;20211;-67
2022/07/13 02:05:13;;;;;;;3.73;2.50;;;18.50;99.90;;;;;;5049631;28;20421;-66
2022/07/13 02:07:40;;;;;;;20.10;3.17;;;18.40;99.90;;;;;;5048821;28;20416;-67
2022/07/13 02:10:08;;;;;;;9.60;2.60;;;18.40;99.90;;;;;;5049461;28;20373;-67
2022/07/13 02:12:34;;;;;;;7.37;2.17;;;18.30;99.90;;;;;;5048698;28;20508;-66
2022/07/13 02:15:00;;;;;;;3.90;2.07;;;18.30;99.90;;;;;;5049817;28;20496;-67
2022/07/13 02:17:26;;;;;;;14.37;2.50;;;18.10;99.90;;;;;;5047994;28;21122;-67
2022/07/13 02:19:52;;;;;;;12.50;3.23;;;18.10;99.90;;;;;;5049313;28;20518;-67
2022/07/13 02:22:18;;;;;;;17.07;3.50;;;18.10;99.90;;;;;;5048931;28;20191;-67
2022/07/13 02:24:43;;;;;;;10.23;2.80;;;18.20;99.90;;;;;;5031579;28;20214;-67
2022/07/13 02:27:09;;;;;;;8.67;2.40;;;18.20;99.90;;;;;;5048186;28;20235;-67
2022/07/13 02:29:35;;;;;;;10.80;2.77;;;18.20;99.90;;;;;;5049046;28;20673;-67
2022/07/13 02:32:00;;;;;;;5.50;2.20;;;18.20;99.90;;;;;;5048574;28;20567;-66
2022/07/13 02:34:29;;;;;;;23.23;4.90;;;18.10;99.90;;;;;;5048960;28;20171;-67
2022/07/13 02:36:58;;;;;;;7.03;2.20;;;18.10;99.90;;;;;;5048437;28;20229;-67
2022/07/13 02:39:25;;;;;;;15.17;4.30;;;18.10;99.90;;;;;;5048592;28;20571;-67
2022/07/13 02:42:30;;;;;;;15.70;4.07;;;18.10;99.90;;;;;;5052682;28;20638;-62
2022/07/13 02:45:27;;;;;;;16.10;3.07;;;18.10;99.90;;;;;;5091553;28;20405;-63
2022/07/13 02:48:15;;;;;;;5.33;3.07;;;18.00;99.90;;;;;;5073755;28;20408;-64
2022/07/13 02:50:41;;;;;;;48.30;6.27;;;18.10;99.90;;;;;;5074632;28;20464;-66
2022/07/13 02:53:07;;;;;;;30.80;4.90;;;18.10;99.90;;;;;;5107572;28;20459;-65
2022/07/13 02:55:32;;;;;;;19.03;3.40;;;18.10;99.90;;;;;;5080512;28;20257;-64
2022/07/13 02:58:00;;;;;;;13.57;3.80;;;18.10;99.90;;;;;;5069630;28;20225;-68
2022/07/13 03:00:26;;;;;;;29.33;3.97;;;18.10;99.90;;;;;;5048726;28;20210;-69
2022/07/13 03:02:55;;;;;;;18.93;3.60;;;18.10;99.90;;;;;;5082624;28;20417;-69
2022/07/13 03:05:23;;;;;;;5.07;2.53;;;18.00;99.90;;;;;;5065462;28;20434;-68
2022/07/13 03:07:50;;;;;;;34.20;4.70;;;18.00;99.90;;;;;;5079161;28;20412;-70
2022/07/13 03:10:16;;;;;;;12.53;3.27;;;18.00;99.90;;;;;;5050451;28;20444;-68
2022/07/13 03:12:42;;;;;;;45.23;6.57;;;17.90;99.90;;;;;;5053476;28;20563;-67
2022/07/13 03:15:08;;;;;;;21.90;3.60;;;17.90;99.90;;;;;;5071251;28;20202;-66
2022/07/13 03:17:34;;;;;;;19.53;3.60;;;17.90;99.90;;;;;;5051115;28;20531;-67
2022/07/13 03:19:59;;;;;;;10.03;3.10;;;17.80;99.90;;;;;;5070360;28;20495;-68
2022/07/13 03:22:25;;;;;;;22.50;4.20;;;17.70;99.90;;;;;;5070960;28;20181;-69
2022/07/13 03:24:51;;;;;;;19.87;3.47;;;17.70;99.90;;;;;;5051738;28;20182;-69
2022/07/13 03:27:17;;;;;;;7.70;3.00;;;17.80;99.90;;;;;;5071365;28;20216;-68
2022/07/13 03:29:42;;;;;;;37.93;5.27;;;17.80;99.90;;;;;;5072642;28;20250;-68
2022/07/13 03:32:08;;;;;;;30.53;4.60;;;17.90;99.90;;;;;;5054049;28;20490;-67
2022/07/13 03:34:34;;;;;;;29.20;4.50;;;17.80;99.90;;;;;;5073963;28;20175;-66
2022/07/13 03:36:59;;;;;;;87.77;14.80;;;17.80;99.90;;;;;;5073782;28;20195;-67
2022/07/13 03:39:25;;;;;;;32.43;5.20;;;17.80;99.90;;;;;;5073416;28;20203;-70
2022/07/13 03:41:51;;;;;;;15.23;3.67;;;17.80;99.90;;;;;;5056633;28;20187;-66
2022/07/13 03:44:18;;;;;;;75.03;8.70;;;17.70;99.90;;;;;;5072289;28;20174;-67
2022/07/13 03:46:43;;;;;;;14.53;3.43;;;17.70;99.90;;;;;;5084565;28;20162;-67
2022/07/13 03:49:09;;;;;;;25.90;4.07;;;17.70;99.90;;;;;;5096907;22;20435;-66
2022/07/13 03:51:36;;;;;;;23.43;4.83;;;17.70;99.90;;;;;;5051828;28;20269;-67
2022/07/13 03:54:02;;;;;;;52.67;7.50;;;17.80;99.90;;;;;;5051265;28;20524;-66
2022/07/13 03:56:28;;;;;;;47.27;5.93;;;18.00;99.90;;;;;;5051007;28;20406;-66
2022/07/13 03:58:53;;;;;;;48.83;6.67;;;18.10;99.90;;;;;;5050285;28;20167;-67
2022/07/13 04:01:19;;;;;;;70.47;8.43;;;18.10;99.90;;;;;;5051063;28;20167;-66
2022/07/13 04:03:45;;;;;;;57.63;7.57;;;18.20;99.90;;;;;;5051557;28;20697;-66
2022/07/13 04:06:10;;;;;;;36.00;5.50;;;18.40;99.90;;;;;;5051173;28;20772;-65
2022/07/13 04:08:36;;;;;;;20.27;3.63;;;18.50;99.90;;;;;;5050323;28;20515;-65
2022/07/13 04:11:02;;;;;;;5.20;2.67;;;18.50;99.90;;;;;;5051289;28;20663;-64
2022/07/13 04:13:27;;;;;;;5.23;2.67;;;18.70;99.90;;;;;;5050434;28;20179;-65
2022/07/13 04:15:53;;;;;;;12.47;2.83;;;18.80;99.90;;;;;;5050822;28;20190;-66
2022/07/13 04:18:19;;;;;;;15.17;2.37;;;18.80;99.90;;;;;;5050803;28;20197;-66
2022/07/13 04:20:44;;;;;;;35.00;4.40;;;18.90;99.90;;;;;;5051072;28;20303;-66
2022/07/13 04:23:10;;;;;;;10.50;3.83;;;19.00;99.90;;;;;;5050490;28;20175;-65
2022/07/13 04:25:36;;;;;;;18.13;3.80;;;19.00;99.90;;;;;;5051008;28;20163;-66
2022/07/13 04:28:02;;;;;;;39.03;5.30;;;18.90;99.90;;;;;;5031782;28;20175;-66
2022/07/13 04:30:28;;;;;;;14.43;4.03;;;18.90;99.90;;;;;;5050030;28;20539;-66
2022/07/13 04:32:53;;;;;;;10.77;3.23;;;18.90;99.90;;;;;;5049326;28;20221;-65
2022/07/13 04:35:19;;;;;;;31.30;5.20;;;19.50;99.90;;;;;;5051154;28;20176;-67
2022/07/13 04:37:45;;;;;;;16.60;3.70;;;20.10;99.90;;;;;;5050028;28;20167;-64
2022/07/13 04:40:11;;;;;;;19.73;4.80;;;20.40;99.90;;;;;;5050437;28;20222;-62
2022/07/13 04:42:37;;;;;;;26.03;4.97;;;20.40;99.90;;;;;;5039563;28;20170;-68
2022/07/13 04:45:03;;;;;;;14.57;3.67;;;20.50;99.90;;;;;;5070443;28;20418;-68
2022/07/13 04:47:29;;;;;;;30.40;5.77;;;20.50;99.90;;;;;;5069241;28;20162;-67
2022/07/13 04:49:54;;;;;;;10.37;3.10;;;20.50;99.90;;;;;;5070092;28;20782;-68
2022/07/13 04:52:21;;;;;;;15.60;3.60;;;20.60;99.90;;;;;;5069872;28;20171;-69
2022/07/13 04:54:47;;;;;;;31.33;6.23;;;20.70;99.90;;;;;;5052216;28;20266;-68
2022/07/13 04:57:13;;;;;;;25.63;4.33;;;20.80;99.90;;;;;;5049220;28;20409;-67
2022/07/13 04:59:38;;;;;;;29.47;5.47;;;20.80;99.90;;;;;;5050573;28;20217;-67
2022/07/13 05:02:04;;;;;;;16.57;3.87;;;21.10;99.90;;;;;;5050743;28;20687;-67
2022/07/13 05:04:30;;;;;;;16.23;4.00;;;21.10;99.90;;;;;;5050273;28;20257;-68
2022/07/13 05:06:55;;;;;;;17.97;6.57;;;21.30;99.90;;;;;;5049040;28;20278;-66
2022/07/13 05:09:21;;;;;;;29.27;4.37;;;21.30;99.90;;;;;;5049423;28;20583;-67
2022/07/13 05:11:47;;;;;;;30.27;4.83;;;21.40;99.90;;;;;;5048831;28;20222;-68
2022/07/13 05:14:13;;;;;;;15.80;4.40;;;21.30;99.90;;;;;;5049922;28;20460;-68
2022/07/13 05:16:39;;;;;;;18.50;4.57;;;21.30;99.90;;;;;;5049436;28;20183;-67
2022/07/13 05:19:05;;;;;;;7.20;3.50;;;21.50;99.90;;;;;;5048986;28;20221;-67
2022/07/13 05:21:31;;;;;;;10.03;2.97;;;21.50;99.90;;;;;;5044748;28;20258;-69
2022/07/13 05:23:56;;;;;;;6.63;2.97;;;21.60;99.90;;;;;;5027662;28;21226;-67
2022/07/13 05:26:22;;;;;;;9.60;2.80;;;21.70;99.90;;;;;;5040701;28;20175;-67
2022/07/13 05:28:48;;;;;;;10.67;3.23;;;21.80;99.90;;;;;;5039528;28;20234;-66
2022/07/13 05:31:14;;;;;;;8.77;3.57;;;22.00;99.90;;;;;;5036259;28;20191;-67
2022/07/13 05:33:40;;;;;;;7.13;3.30;;;22.00;99.90;;;;;;5032525;28;20190;-67
2022/07/13 05:36:06;;;;;;;13.20;4.40;;;22.20;99.90;;;;;;5040258;28;20277;-68
2022/07/13 05:38:32;;;;;;;23.30;5.37;;;22.10;99.90;;;;;;5043678;28;20422;-67
2022/07/13 05:40:57;;;;;;;32.13;5.47;;;22.10;99.90;;;;;;5045307;28;20456;-67
2022/07/13 05:43:24;;;;;;;33.90;5.93;;;22.20;99.90;;;;;;5041843;28;20261;-66
2022/07/13 05:45:50;;;;;;;6.83;3.57;;;22.30;99.90;;;;;;5046703;28;20166;-67
2022/07/13 05:48:16;;;;;;;11.43;3.80;;;22.40;99.90;;;;;;5036705;28;20425;-67
2022/07/13 05:50:42;;;;;;;5.10;2.90;;;22.40;99.90;;;;;;5068386;28;20209;-67
2022/07/13 05:53:07;;;;;;;8.93;3.30;;;21.70;99.90;;;;;;5064816;28;20637;-66
2022/07/13 05:55:33;;;;;;;4.50;3.00;;;21.40;99.90;;;;;;5045255;28;20212;-67
2022/07/13 05:57:59;;;;;;;6.73;3.20;;;21.30;99.90;;;;;;5035511;28;20202;-67
2022/07/13 06:00:24;;;;;;;5.47;2.93;;;21.60;99.90;;;;;;5035124;28;20196;-67
2022/07/13 06:02:50;;;;;;;5.80;3.70;;;21.80;99.90;;;;;;5033684;28;20180;-68
2022/07/13 06:05:16;;;;;;;10.90;3.60;;;22.30;99.90;;;;;;5033668;28;20164;-67
2022/07/13 06:07:42;;;;;;;6.20;3.30;;;22.60;99.90;;;;;;5036072;28;20263;-67
2022/07/13 06:10:08;;;;;;;4.73;3.00;;;22.90;99.90;;;;;;5035654;28;20200;-67
2022/07/13 06:12:33;;;;;;;8.03;2.83;;;22.70;99.90;;;;;;5033422;28;20480;-65
2022/07/13 06:14:59;;;;;;;9.60;2.60;;;22.40;99.90;;;;;;5040532;28;20425;-67
2022/07/13 06:17:25;;;;;;;18.30;3.70;;;22.20;99.90;;;;;;5044299;28;20293;-66
2022/07/13 06:19:50;;;;;;;18.57;4.70;;;21.80;99.90;;;;;;5037713;28;20203;-68
2022/07/13 06:22:17;;;;;;;32.73;5.27;;;21.90;99.90;;;;;;5035293;28;20196;-67
2022/07/13 06:24:43;;;;;;;9.90;2.97;;;22.30;99.90;;;;;;5032452;28;20410;-67
2022/07/13 06:27:09;;;;;;;16.20;3.20;;;22.40;99.90;;;;;;5031878;28;20183;-67
2022/07/13 06:29:35;;;;;;;19.77;3.87;;;22.70;99.90;;;;;;5033485;28;20748;-67
2022/07/13 06:32:01;;;;;;;8.17;2.93;;;23.20;99.90;;;;;;5040662;28;20451;-67
2022/07/13 06:34:27;;;;;;;14.90;3.50;;;23.30;99.90;;;;;;5045052;28;20448;-66
2022/07/13 06:36:53;;;;;;;21.20;3.80;;;23.40;99.90;;;;;;5045651;28;20266;-66
2022/07/13 06:39:18;;;;;;;17.57;3.87;;;23.50;99.90;;;;;;5043206;28;20282;-63
2022/07/13 06:41:45;;;;;;;29.80;4.10;;;23.90;99.90;;;;;;5044885;28;20506;-67
2022/07/13 06:44:11;;;;;;;15.83;3.97;;;24.10;99.90;;;;;;5039889;28;20174;-66
2022/07/13 06:46:37;;;;;;;25.60;7.70;;;24.20;99.90;;;;;;5044736;28;20426;-66
2022/07/13 06:49:03;;;;;;;23.70;4.27;;;24.30;99.90;;;;;;5044313;28;20428;-66
2022/07/13 06:51:28;;;;;;;10.03;2.93;;;24.20;99.90;;;;;;5043276;28;20187;-65
2022/07/13 06:53:54;;;;;;;3.87;2.70;;;24.30;99.90;;;;;;5030029;28;20179;-66
2022/07/13 06:56:20;;;;;;;31.50;4.70;;;24.20;99.90;;;;;;5039386;28;20494;-67
2022/07/13 06:58:47;;;;;;;40.30;6.50;;;24.50;99.90;;;;;;5041903;28;20171;-67
2022/07/13 07:01:13;;;;;;;85.50;9.73;;;25.00;99.90;;;;;;5030058;28;20549;-66
2022/07/13 07:03:39;;;;;;;4.87;2.70;;;24.70;99.90;;;;;;5031451;28;20579;-65
2022/07/13 07:06:05;;;;;;;7.37;2.53;;;24.60;99.90;;;;;;5031997;28;20348;-65
2022/07/13 07:08:30;;;;;;;27.20;4.00;;;24.70;99.90;;;;;;5030827;28;20375;-65
2022/07/13 07:10:56;;;;;;;19.17;4.10;;;25.10;99.90;;;;;;5030516;28;20674;-66
2022/07/13 07:13:22;;;;;;;14.07;3.17;;;25.40;99.90;;;;;;5023527;28;20200;-65
2022/07/13 07:15:48;;;;;;;8.43;3.90;;;25.20;99.90;;;;;;5038387;28;20743;-65
2022/07/13 07:18:14;;;;;;;34.27;4.27;;;25.30;99.90;;;;;;5043364;28;20184;-66
2022/07/13 07:20:39;;;;;;;16.77;4.30;;;25.60;99.90;;;;;;5031271;28;20245;-66
2022/07/13 07:23:05;;;;;;;19.43;4.70;;;25.70;99.90;;;;;;5029795;28;20202;-65
2022/07/13 07:25:31;;;;;;;30.43;6.60;;;26.10;99.90;;;;;;5031480;28;20186;-65
2022/07/13 07:27:57;;;;;;;15.20;5.20;;;26.30;99.90;;;;;;5032340;28;20574;-66
2022/07/13 07:30:23;;;;;;;34.87;5.40;;;26.10;98.60;;;;;;5041258;28;20274;-66
2022/07/13 07:32:48;;;;;;;36.17;6.17;;;26.40;97.80;;;;;;5042392;28;20303;-65
2022/07/13 07:35:14;;;;;;;96.97;11.40;;;26.50;96.40;;;;;;5047741;28;20606;-65
2022/07/13 07:37:40;;;;;;;371.23;35.17;;;26.70;95.40;;;;;;5050546;28;20198;-65
2022/07/13 07:40:07;;;;;;;52.83;8.47;;;26.90;94.20;;;;;;5058084;28;20226;-64
2022/07/13 07:42:33;;;;;;;105.47;12.57;;;27.00;93.30;;;;;;5062704;28;20446;-65
2022/07/13 07:44:59;;;;;;;83.70;10.20;;;27.00;92.10;;;;;;5048778;28;20516;-68
2022/07/13 07:47:25;;;;;;;52.33;9.10;;;27.00;90.50;;;;;;5063877;28;20507;-65
2022/07/13 07:49:54;;;;;;;27.63;6.00;;;26.20;89.00;;;;;;5042786;28;20207;-66
2022/07/13 07:52:21;;;;;;;15.87;4.20;;;26.60;88.90;;;;;;5035558;28;20185;-65
2022/07/13 07:54:47;;;;;;;13.63;3.70;;;26.40;83.70;;;;;;5040534;28;20412;-64
2022/07/13 07:57:13;;;;;;;20.57;3.93;;;26.40;81.10;;;;;;5047034;28;20870;-64
2022/07/13 07:59:39;;;;;;;20.40;3.63;;;26.50;81.10;;;;;;5058199;28;20491;-65
2022/07/13 08:02:06;;;;;;;14.10;3.20;;;26.80;81.80;;;;;;5053008;28;20452;-64
2022/07/13 08:04:31;;;;;;;14.30;3.70;;;26.60;75.10;;;;;;5051034;28;20163;-66
2022/07/13 08:06:57;;;;;;;29.87;5.37;;;26.10;74.70;;;;;;5043998;28;20417;-65
2022/07/13 08:09:23;;;;;;;26.37;4.63;;;26.30;72.40;;;;;;5034037;28;20700;-65
2022/07/13 08:11:49;;;;;;;33.07;5.23;;;26.70;74.00;;;;;;5036316;28;20718;-66
2022/07/13 08:14:15;;;;;;;23.67;4.27;;;27.20;72.70;;;;;;5046407;28;20174;-66
2022/07/13 08:16:40;;;;;;;215.20;20.37;;;27.40;72.50;;;;;;5046181;28;20201;-65
2022/07/13 08:19:06;;;;;;;18.43;3.03;;;27.50;71.10;;;;;;5042568;28;20241;-65
2022/07/13 08:21:32;;;;;;;14.33;2.03;;;27.30;61.40;;;;;;5034896;28;20175;-66
2022/07/13 08:23:58;;;;;;;40.57;5.40;;;26.70;58.20;;;;;;5042313;28;20525;-65
2022/07/13 08:26:27;;;;;;;17.20;3.30;;;26.50;58.20;;;;;;5036130;28;20175;-66
2022/07/13 08:28:54;;;;;;;17.00;2.57;;;26.30;56.00;;;;;;5032277;28;20414;-66
2022/07/13 08:31:21;;;;;;;12.37;2.20;;;26.90;57.00;;;;;;5038442;28;20435;-66
2022/07/13 08:39:17;;;;;;;31.97;4.30;;;27.10;48.70;;;;;;5032527;28;20464;-67
2022/07/13 08:41:43;;;;;;;9.50;2.13;;;27.10;47.00;;;;;;5032319;28;20424;-66
2022/07/13 08:44:10;;;;;;;221.57;21.17;;;27.40;44.30;;;;;;5041633;28;20422;-68
2022/07/13 08:46:35;;;;;;;23.33;2.90;;;27.40;43.10;;;;;;5045143;28;20783;-65
2022/07/13 08:49:02;;;;;;;58.60;7.93;;;27.50;43.00;;;;;;5042627;28;20418;-66
2022/07/13 08:51:31;;;;;;;3.60;1.80;;;27.50;42.80;;;;;;5033623;28;20604;-67
2022/07/13 08:53:57;;;;;;;133.20;14.43;;;27.40;40.70;;;;;;5032161;28;20421;-67
2022/07/13 08:56:23;;;;;;;23.83;5.43;;;27.20;40.90;;;;;;5036534;28;20428;-68
2022/07/13 08:58:49;;;;;;;4.30;2.40;;;27.00;40.90;;;;;;5035442;28;20417;-66
2022/07/13 09:01:16;;;;;;;5.00;2.10;;;27.00;40.10;;;;;;5031774;28;20279;-67
2022/07/13 09:03:42;;;;;;;5.90;1.93;;;27.30;40.40;;;;;;5033412;28;20892;-66
2022/07/13 09:06:08;;;;;;;2.23;1.60;;;27.40;38.90;;;;;;5032198;28;20514;-66
2022/07/13 09:08:42;;;;;;;5.70;1.90;;;26.70;35.10;;;;;;5032445;28;20413;-67
2022/07/13 09:11:08;;;;;;;4.30;1.40;;;27.00;34.30;;;;;;5032885;28;20433;-67
2022/07/13 09:13:41;;;;;;;23.63;3.63;;;26.80;30.70;;;;;;5038509;28;20478;-67
2022/07/13 09:16:20;;;;;;;32.33;3.80;;;26.90;28.80;;;;;;5031993;28;20167;-67
2022/07/13 09:18:57;;;;;;;14.50;2.80;;;26.90;28.10;;;;;;5031827;28;20446;-67
2022/07/13 09:21:24;;;;;;;10.20;2.77;;;27.10;28.10;;;;;;5051859;28;20815;-65
2022/07/13 09:24:01;;;;;;;17.60;2.77;;;27.40;27.50;;;;;;5047946;28;20440;-67
2022/07/13 09:26:40;;;;;;;5.37;1.80;;;27.50;26.30;;;;;;5046118;28;20823;-68
2022/07/13 09:29:06;;;;;;;1.50;1.40;;;27.30;23.40;;;;;;5031610;28;20409;-66
2022/07/13 09:31:58;;;;;;;16.23;2.43;;;27.10;22.10;;;;;;5038574;28;20502;-66
2022/07/13 09:34:48;;;;;;;9.50;2.10;;;26.90;21.40;;;;;;5032606;28;20238;-69
2022/07/13 09:37:22;;;;;;;9.47;1.93;;;27.00;20.50;;;;;;5041644;28;20421;-68
2022/07/13 09:40:06;;;;;;;2.17;1.37;;;27.10;19.60;;;;;;5045414;28;20515;-67
2022/07/13 09:42:35;;;;;;;9.10;1.80;;;27.40;17.40;;;;;;5050007;28;20424;-67
2022/07/13 09:47:51;;;;;;;9.00;1.83;;;27.40;15.70;;;;;;5031249;28;20548;-67
2022/07/13 09:50:17;;;;;;;14.77;2.43;;;27.40;16.30;;;;;;5042818;28;20611;-64
2022/07/13 09:52:44;;;;;;;33.00;5.10;;;27.70;16.60;;;;;;5068739;28;20872;-67
2022/07/13 09:55:12;;;;;;;1.70;1.40;;;27.70;14.90;;;;;;5056893;28;20407;-67
2022/07/13 09:57:46;;;;;;;28.63;3.70;;;27.70;13.30;;;;;;5048328;28;20409;-67
2022/07/13 10:00:16;;;;;;;11.80;2.70;;;27.60;12.30;;;;;;5048431;28;20467;-67
2022/07/13 10:02:43;;;;;;;10.10;2.10;;;27.30;12.70;;;;;;5047632;28;20442;-66
2022/07/13 10:05:10;;;;;;;7.07;2.40;;;27.60;13.20;;;;;;5030849;28;20505;-66
2022/07/13 10:07:37;;;;;;;3.83;2.00;;;28.00;12.00;;;;;;5066006;28;20400;-68
2022/07/13 10:10:06;;;;;;;3.03;1.40;;;28.20;11.30;;;;;;5058844;28;20893;-67
2022/07/13 10:12:36;;;;;;;50.97;5.97;;;28.40;10.10;;;;;;5031122;28;20868;-66
2022/07/13 10:15:02;;;;;;;11.33;2.20;;;28.40;9.70;;;;;;5045530;28;20937;-67
2022/07/13 10:17:28;;;;;;;3.90;2.27;;;28.60;9.30;;;;;;5044062;28;20456;-67
2022/07/13 10:20:12;;;;;;;3.43;1.87;;;28.60;8.30;;;;;;5036854;28;20495;-65
2022/07/13 10:22:45;;;;;;;3.33;1.80;;;28.40;7.80;;;;;;5035453;28;20657;-67
2022/07/13 10:25:11;;;;;;;6.07;1.37;;;28.20;6.30;;;;;;5045563;28;20507;-67
2022/07/13 10:27:38;;;;;;;3.20;1.30;;;28.00;4.20;;;;;;5043002;28;20435;-66
2022/07/13 10:30:19;;;;;;;20.40;2.47;;;27.90;2.00;;;;;;5031668;28;20300;-67
2022/07/13 10:32:46;;;;;;;8.93;1.60;;;27.80;1.80;;;;;;5020927;28;20494;-66
2022/07/13 10:35:17;;;;;;;3.93;1.80;;;27.90;1.00;;;;;;5045798;28;20458;-67
2022/07/13 10:38:03;;;;;;;5.60;2.10;;;28.20;1.00;;;;;;5031793;28;20422;-67
2022/07/13 10:40:34;;;;;;;1.83;1.50;;;28.20;1.00;;;;;;5030372;28;20468;-67
2022/07/13 10:43:01;;;;;;;12.77;2.67;;;28.30;1.00;;;;;;5047791;28;20446;-67
2022/07/13 10:45:38;;;;;;;29.00;4.00;;;28.60;1.00;;;;;;5031161;28;20972;-66
2022/07/13 10:48:21;;;;;;;12.37;2.47;;;28.50;1.00;;;;;;5029774;28;20417;-68
2022/07/13 10:50:59;;;;;;;6.83;1.57;;;28.40;1.00;;;;;;5042800;28;20823;-67
2022/07/13 10:53:43;;;;;;;6.27;1.67;;;28.00;1.00;;;;;;5044834;28;20412;-67
2022/07/13 10:56:19;;;;;;;2.60;1.40;;;28.10;1.00;;;;;;5045390;28;20514;-66
2022/07/13 10:58:46;;;;;;;4.93;1.77;;;28.20;1.00;;;;;;5043724;28;20940;-66
2022/07/13 11:01:32;;;;;;;10.10;2.10;;;28.30;1.00;;;;;;5030603;28;20457;-68
2022/07/13 11:03:58;;;;;;;3.67;1.70;;;28.60;1.00;;;;;;5042414;28;20922;-67
2022/07/13 11:06:25;;;;;;;16.67;3.00;;;28.30;1.00;;;;;;5045353;28;20420;-67
2022/07/13 11:09:06;;;;;;;40.37;4.70;;;28.40;1.00;;;;;;5033194;28;20186;-67
2022/07/13 11:11:32;;;;;;;5.27;2.10;;;28.40;1.00;;;;;;5030545;28;20464;-68
2022/07/13 11:13:58;;;;;;;38.03;4.23;;;28.50;1.00;;;;;;5043579;28;20440;-68
2022/07/13 11:16:48;;;;;;;6.50;1.47;;;28.70;1.00;;;;;;5044692;28;20474;-67
2022/07/13 11:19:15;;;;;;;9.00;1.70;;;28.80;1.00;;;;;;5044429;28;20970;-66
2022/07/13 11:22:03;;;;;;;8.53;1.80;;;29.00;1.00;;;;;;5043680;28;20850;-67
2022/07/13 11:27:22;;;;;;;5.63;1.70;;;28.80;1.00;;;;;;5029858;28;20452;-68
2022/07/13 11:29:57;;;;;;;4.90;1.70;;;28.80;1.00;;;;;;5031406;28;20437;-67
2022/07/13 11:32:25;;;;;;;3.30;1.63;;;28.50;1.00;;;;;;5035099;28;20436;-66
2022/07/13 11:34:52;;;;;;;3.00;1.10;;;28.40;1.00;;;;;;5041129;28;20432;-66
2022/07/13 11:37:25;;;;;;;2.70;1.23;;;28.30;1.00;;;;;;5066702;28;20471;-68
2022/07/13 11:39:51;;;;;;;2.90;1.30;;;28.30;1.00;;;;;;5060239;28;20449;-68
2022/07/13 11:42:22;;;;;;;2.80;1.40;;;28.40;1.00;;;;;;5049016;28;20412;-64
2022/07/13 11:44:51;;;;;;;4.30;1.40;;;28.40;1.00;;;;;;5044909;28;20159;-67
2022/07/13 11:47:17;;;;;;;2.67;1.40;;;28.60;1.00;;;;;;5033159;28;20417;-67
2022/07/13 11:49:52;;;;;;;17.50;2.57;;;28.50;1.00;;;;;;5045636;28;20559;-67
2022/07/13 11:52:28;;;;;;;7.00;1.80;;;28.30;1.00;;;;;;5033373;28;20436;-67
2022/07/13 11:55:03;;;;;;;3.03;1.20;;;28.40;1.00;;;;;;5036449;28;20508;-65
2022/07/13 11:57:30;;;;;;;4.73;1.50;;;28.40;1.00;;;;;;5041720;28;20419;-66
2022/07/13 12:00:09;;;;;;;11.43;2.33;;;28.50;1.00;;;;;;5040600;28;20801;-67
2022/07/13 12:02:36;;;;;;;7.70;1.77;;;28.70;1.00;;;;;;5033457;28;20409;-67
2022/07/13 12:05:02;;;;;;;4.30;1.60;;;28.80;1.00;;;;;;5035003;28;20492;-67
2022/07/13 12:07:31;;;;;;;11.40;2.07;;;29.00;1.00;;;;;;5033051;28;20467;-67
2022/07/13 12:09:59;;;;;;;13.70;2.40;;;29.20;1.00;;;;;;5046934;28;20437;-68
2022/07/13 12:12:36;;;;;;;26.93;3.90;;;29.30;1.00;;;;;;5038980;28;20491;-66
2022/07/13 12:15:03;;;;;;;3.83;1.77;;;29.40;1.00;;;;;;5046700;28;20409;-66
2022/07/13 12:17:40;;;;;;;2.70;1.80;;;29.50;1.00;;;;;;5043700;28;20499;-67
2022/07/13 12:20:22;;;;;;;8.13;1.73;;;29.30;1.00;;;;;;5047180;28;20463;-67
2022/07/13 12:22:50;;;;;;;3.60;1.17;;;29.10;1.00;;;;;;5035243;28;20409;-67
2022/07/13 12:25:35;;;;;;;5.20;1.50;;;28.80;1.00;;;;;;5033417;28;20954;-65
2022/07/13 12:28:03;;;;;;;8.33;1.87;;;28.90;1.00;;;;;;5033709;28;20412;-66
2022/07/13 12:30:31;;;;;;;7.67;1.50;;;29.00;1.00;;;;;;5033179;28;20957;-69
2022/07/13 12:33:06;;;;;;;3.53;1.23;;;29.10;1.00;;;;;;5038641;28;20511;-68
2022/07/13 12:35:35;;;;;;;17.43;2.50;;;29.10;1.00;;;;;;5047172;28;20855;-68
2022/07/13 12:38:04;;;;;;;7.03;1.50;;;29.10;1.00;;;;;;5029497;28;20432;-68
2022/07/13 12:40:49;;;;;;;8.10;1.47;;;29.20;1.00;;;;;;5046894;28;20903;-68
2022/07/13 12:43:22;;;;;;;8.03;1.83;;;29.20;1.00;;;;;;5048048;28;20413;-66
2022/07/13 12:45:55;;;;;;;4.20;2.10;;;29.30;1.00;;;;;;5044743;28;20422;-67
2022/07/13 12:48:34;;;;;;;6.30;1.40;;;29.30;1.00;;;;;;5040259;28;20424;-67
2022/07/13 12:51:08;;;;;;;9.10;1.30;;;29.30;1.00;;;;;;5039001;28;21151;-67
2022/07/13 12:53:52;;;;;;;13.37;2.50;;;29.30;1.00;;;;;;5045566;28;20441;-68
2022/07/13 12:56:23;;;;;;;9.83;2.17;;;29.40;1.00;;;;;;5052507;28;20450;-67
2022/07/13 12:58:51;;;;;;;5.60;1.50;;;29.50;1.00;;;;;;5046831;28;20417;-67
2022/07/13 13:01:36;;;;;;;5.00;1.60;;;29.50;1.00;;;;;;5044134;28;20988;-66
2022/07/13 13:04:04;;;;;;;8.23;2.27;;;29.70;1.00;;;;;;5039431;28;20413;-67
2022/07/13 13:06:31;;;;;;;4.77;2.10;;;29.90;1.00;;;;;;5034778;28;20421;-67
2022/07/13 13:09:03;;;;;;;7.20;2.43;;;29.90;1.00;;;;;;5044548;28;20512;-66